sensor_id;sensor_type;location;lat;lon;timestamp;P1;durP1;ratioP1;P2;durP2;ratioP2
173;SDS011;75;48.784;9.364;2022-12-29T00:01:43;8.33;;;3.70;;
173;SDS011;75;48.784;9.364;2022-12-29T00:04:11;6.00;;;4.30;;
173;SDS011;75;48.784;9.364;2022-12-29T00:06:38;8.30;;;4.07;;
173;SDS011;75;48.784;9.364;2022-12-29T00:09:06;7.50;;;3.90;;
173;SDS011;75;48.784;9.364;2022-12-29T00:11:33;6.60;;;3.87;;
173;SDS011;75;48.784;9.364;2022-12-29T00:14:01;6.53;;;4.10;;
173;SDS011;75;48.784;9.364;2022-12-29T00:16:47;7.20;;;3.93;;
173;SDS011;75;48.784;9.364;2022-12-29T00:19:14;9.07;;;4.20;;
173;SDS011;75;48.784;9.364;2022-12-29T00:22:01;6.93;;;3.73;;
173;SDS011;75;48.784;9.364;2022-12-29T00:24:47;7.00;;;3.80;;
173;SDS011;75;48.784;9.364;2022-12-29T00:27:33;7.90;;;3.70;;
173;SDS011;75;48.784;9.364;2022-12-29T00:30:20;6.00;;;3.87;;
173;SDS011;75;48.784;9.364;2022-12-29T00:33:08;7.87;;;3.60;;
173;SDS011;75;48.784;9.364;2022-12-29T00:35:56;6.40;;;3.77;;
173;SDS011;75;48.784;9.364;2022-12-29T00:38:25;5.43;;;3.40;;
173;SDS011;75;48.784;9.364;2022-12-29T00:41:11;5.80;;;3.50;;
173;SDS011;75;48.784;9.364;2022-12-29T00:43:57;4.73;;;3.33;;
173;SDS011;75;48.784;9.364;2022-12-29T00:46:34;4.63;;;3.30;;
173;SDS011;75;48.784;9.364;2022-12-29T00:49:02;9.83;;;3.80;;
173;SDS011;75;48.784;9.364;2022-12-29T00:51:48;7.70;;;3.50;;
173;SDS011;75;48.784;9.364;2022-12-29T00:54:15;5.20;;;3.40;;
173;SDS011;75;48.784;9.364;2022-12-29T00:56:43;5.00;;;3.27;;
173;SDS011;75;48.784;9.364;2022-12-29T00:59:10;5.70;;;3.57;;
173;SDS011;75;48.784;9.364;2022-12-29T01:01:38;5.57;;;3.43;;
173;SDS011;75;48.784;9.364;2022-12-29T01:04:06;6.23;;;3.50;;
173;SDS011;75;48.784;9.364;2022-12-29T01:06:33;5.43;;;3.60;;
173;SDS011;75;48.784;9.364;2022-12-29T01:09:02;4.60;;;3.50;;
173;SDS011;75;48.784;9.364;2022-12-29T01:11:48;4.77;;;3.17;;
173;SDS011;75;48.784;9.364;2022-12-29T01:14:16;6.20;;;3.60;;
173;SDS011;75;48.784;9.364;2022-12-29T01:16:44;5.67;;;3.77;;
173;SDS011;75;48.784;9.364;2022-12-29T01:19:11;4.47;;;3.10;;
173;SDS011;75;48.784;9.364;2022-12-29T01:21:39;6.03;;;3.50;;
173;SDS011;75;48.784;9.364;2022-12-29T01:24:06;5.87;;;3.40;;
173;SDS011;75;48.784;9.364;2022-12-29T01:26:34;7.50;;;3.20;;
173;SDS011;75;48.784;9.364;2022-12-29T01:29:01;8.50;;;3.30;;
173;SDS011;75;48.784;9.364;2022-12-29T01:31:28;8.70;;;3.43;;
173;SDS011;75;48.784;9.364;2022-12-29T01:33:56;6.23;;;3.80;;
173;SDS011;75;48.784;9.364;2022-12-29T01:36:23;7.67;;;3.17;;
173;SDS011;75;48.784;9.364;2022-12-29T01:38:51;6.03;;;3.10;;
173;SDS011;75;48.784;9.364;2022-12-29T01:41:18;7.20;;;2.83;;
173;SDS011;75;48.784;9.364;2022-12-29T01:43:53;5.40;;;3.20;;
173;SDS011;75;48.784;9.364;2022-12-29T01:49:14;5.93;;;3.17;;
173;SDS011;75;48.784;9.364;2022-12-29T01:51:41;5.87;;;3.53;;
173;SDS011;75;48.784;9.364;2022-12-29T01:54:13;6.93;;;3.27;;
173;SDS011;75;48.784;9.364;2022-12-29T01:56:43;11.33;;;3.30;;
173;SDS011;75;48.784;9.364;2022-12-29T01:59:12;5.67;;;3.00;;
173;SDS011;75;48.784;9.364;2022-12-29T02:01:42;5.83;;;3.10;;
173;SDS011;75;48.784;9.364;2022-12-29T02:04:09;4.27;;;3.10;;
173;SDS011;75;48.784;9.364;2022-12-29T02:06:41;5.17;;;2.90;;
173;SDS011;75;48.784;9.364;2022-12-29T02:09:10;7.60;;;3.20;;
173;SDS011;75;48.784;9.364;2022-12-29T02:11:38;6.40;;;3.70;;
173;SDS011;75;48.784;9.364;2022-12-29T02:14:12;5.60;;;3.10;;
173;SDS011;75;48.784;9.364;2022-12-29T02:16:50;4.60;;;2.90;;
173;SDS011;75;48.784;9.364;2022-12-29T02:24:37;4.40;;;3.00;;
173;SDS011;75;48.784;9.364;2022-12-29T02:34:56;5.80;;;3.10;;
173;SDS011;75;48.784;9.364;2022-12-29T02:37:28;5.67;;;2.90;;
173;SDS011;75;48.784;9.364;2022-12-29T02:47:50;8.50;;;3.00;;
173;SDS011;75;48.784;9.364;2022-12-29T02:50:21;6.70;;;3.20;;
173;SDS011;75;48.784;9.364;2022-12-29T02:52:51;5.53;;;3.13;;
173;SDS011;75;48.784;9.364;2022-12-29T02:55:20;6.83;;;2.90;;
173;SDS011;75;48.784;9.364;2022-12-29T02:57:47;5.87;;;2.93;;
173;SDS011;75;48.784;9.364;2022-12-29T03:00:15;5.70;;;2.97;;
173;SDS011;75;48.784;9.364;2022-12-29T03:05:15;7.17;;;2.90;;
173;SDS011;75;48.784;9.364;2022-12-29T03:07:50;5.90;;;2.70;;
173;SDS011;75;48.784;9.364;2022-12-29T03:10:24;6.10;;;3.00;;
173;SDS011;75;48.784;9.364;2022-12-29T03:12:56;4.40;;;2.60;;
173;SDS011;75;48.784;9.364;2022-12-29T03:15:50;6.40;;;2.60;;
173;SDS011;75;48.784;9.364;2022-12-29T03:18:38;4.90;;;2.40;;
173;SDS011;75;48.784;9.364;2022-12-29T03:21:09;5.53;;;2.80;;
173;SDS011;75;48.784;9.364;2022-12-29T03:23:38;4.70;;;2.87;;
173;SDS011;75;48.784;9.364;2022-12-29T03:26:08;6.23;;;2.70;;
173;SDS011;75;48.784;9.364;2022-12-29T03:28:38;4.53;;;2.40;;
173;SDS011;75;48.784;9.364;2022-12-29T03:31:06;5.47;;;2.80;;
173;SDS011;75;48.784;9.364;2022-12-29T03:33:34;4.40;;;2.30;;
173;SDS011;75;48.784;9.364;2022-12-29T03:36:04;4.80;;;2.80;;
173;SDS011;75;48.784;9.364;2022-12-29T03:41:00;4.57;;;2.80;;
173;SDS011;75;48.784;9.364;2022-12-29T03:43:30;4.67;;;2.80;;
173;SDS011;75;48.784;9.364;2022-12-29T03:45:57;9.43;;;2.83;;
173;SDS011;75;48.784;9.364;2022-12-29T03:48:25;5.57;;;2.77;;
173;SDS011;75;48.784;9.364;2022-12-29T03:50:52;4.60;;;2.63;;
173;SDS011;75;48.784;9.364;2022-12-29T03:53:19;4.53;;;2.87;;
173;SDS011;75;48.784;9.364;2022-12-29T03:55:47;5.20;;;2.50;;
173;SDS011;75;48.784;9.364;2022-12-29T03:58:15;5.33;;;2.63;;
173;SDS011;75;48.784;9.364;2022-12-29T04:00:43;9.20;;;2.67;;
173;SDS011;75;48.784;9.364;2022-12-29T04:03:10;3.80;;;2.50;;
173;SDS011;75;48.784;9.364;2022-12-29T04:05:37;6.50;;;2.67;;
173;SDS011;75;48.784;9.364;2022-12-29T04:08:05;9.07;;;2.93;;
173;SDS011;75;48.784;9.364;2022-12-29T04:10:32;5.83;;;2.90;;
173;SDS011;75;48.784;9.364;2022-12-29T04:12:59;6.03;;;2.80;;
173;SDS011;75;48.784;9.364;2022-12-29T04:15:27;4.30;;;2.53;;
173;SDS011;75;48.784;9.364;2022-12-29T04:17:54;5.63;;;2.57;;
173;SDS011;75;48.784;9.364;2022-12-29T04:20:21;4.83;;;3.03;;
173;SDS011;75;48.784;9.364;2022-12-29T04:23:08;4.67;;;2.90;;
173;SDS011;75;48.784;9.364;2022-12-29T04:25:35;5.10;;;3.13;;
173;SDS011;75;48.784;9.364;2022-12-29T04:28:02;8.00;;;3.20;;
173;SDS011;75;48.784;9.364;2022-12-29T04:30:30;6.50;;;2.90;;
173;SDS011;75;48.784;9.364;2022-12-29T04:32:57;4.87;;;2.87;;
173;SDS011;75;48.784;9.364;2022-12-29T04:35:24;5.07;;;2.83;;
173;SDS011;75;48.784;9.364;2022-12-29T04:37:51;5.30;;;3.30;;
173;SDS011;75;48.784;9.364;2022-12-29T04:40:19;6.60;;;3.00;;
173;SDS011;75;48.784;9.364;2022-12-29T04:42:46;4.50;;;3.00;;
173;SDS011;75;48.784;9.364;2022-12-29T04:45:13;4.57;;;2.80;;
173;SDS011;75;48.784;9.364;2022-12-29T04:47:41;5.33;;;2.90;;
173;SDS011;75;48.784;9.364;2022-12-29T04:50:08;4.93;;;3.10;;
173;SDS011;75;48.784;9.364;2022-12-29T04:52:36;5.80;;;3.20;;
173;SDS011;75;48.784;9.364;2022-12-29T04:55:03;4.07;;;2.70;;
173;SDS011;75;48.784;9.364;2022-12-29T04:57:31;6.90;;;3.13;;
173;SDS011;75;48.784;9.364;2022-12-29T04:59:58;5.20;;;3.17;;
173;SDS011;75;48.784;9.364;2022-12-29T05:02:25;8.17;;;3.23;;
173;SDS011;75;48.784;9.364;2022-12-29T05:04:53;8.20;;;3.40;;
173;SDS011;75;48.784;9.364;2022-12-29T05:07:20;4.40;;;2.80;;
173;SDS011;75;48.784;9.364;2022-12-29T05:09:47;6.00;;;3.50;;
173;SDS011;75;48.784;9.364;2022-12-29T05:12:15;5.70;;;3.03;;
173;SDS011;75;48.784;9.364;2022-12-29T05:14:42;5.20;;;3.20;;
173;SDS011;75;48.784;9.364;2022-12-29T05:17:09;5.10;;;3.10;;
173;SDS011;75;48.784;9.364;2022-12-29T05:19:37;5.47;;;3.10;;
173;SDS011;75;48.784;9.364;2022-12-29T05:22:04;4.50;;;2.93;;
173;SDS011;75;48.784;9.364;2022-12-29T05:24:31;5.30;;;2.70;;
173;SDS011;75;48.784;9.364;2022-12-29T05:26:59;6.63;;;3.10;;
173;SDS011;75;48.784;9.364;2022-12-29T05:29:26;5.70;;;2.70;;
173;SDS011;75;48.784;9.364;2022-12-29T05:31:53;5.17;;;2.97;;
173;SDS011;75;48.784;9.364;2022-12-29T05:34:21;6.17;;;3.03;;
173;SDS011;75;48.784;9.364;2022-12-29T05:36:48;4.60;;;3.10;;
173;SDS011;75;48.784;9.364;2022-12-29T05:39:16;5.17;;;2.90;;
173;SDS011;75;48.784;9.364;2022-12-29T05:41:43;5.20;;;2.60;;
173;SDS011;75;48.784;9.364;2022-12-29T05:44:11;4.80;;;2.83;;
173;SDS011;75;48.784;9.364;2022-12-29T05:46:38;4.97;;;2.80;;
173;SDS011;75;48.784;9.364;2022-12-29T05:49:05;4.23;;;3.10;;
173;SDS011;75;48.784;9.364;2022-12-29T05:51:33;4.23;;;2.70;;
173;SDS011;75;48.784;9.364;2022-12-29T05:54:00;4.63;;;2.87;;
173;SDS011;75;48.784;9.364;2022-12-29T05:56:28;6.10;;;2.90;;
173;SDS011;75;48.784;9.364;2022-12-29T05:58:55;5.57;;;3.00;;
173;SDS011;75;48.784;9.364;2022-12-29T06:01:22;5.07;;;2.90;;
173;SDS011;75;48.784;9.364;2022-12-29T06:03:50;4.97;;;2.90;;
173;SDS011;75;48.784;9.364;2022-12-29T06:06:17;4.90;;;2.80;;
173;SDS011;75;48.784;9.364;2022-12-29T06:08:44;4.60;;;2.70;;
173;SDS011;75;48.784;9.364;2022-12-29T06:11:11;5.10;;;2.70;;
173;SDS011;75;48.784;9.364;2022-12-29T06:13:39;18.00;;;9.53;;
173;SDS011;75;48.784;9.364;2022-12-29T06:16:06;18.63;;;11.13;;
173;SDS011;75;48.784;9.364;2022-12-29T06:18:34;6.13;;;4.47;;
173;SDS011;75;48.784;9.364;2022-12-29T06:21:01;6.27;;;4.30;;
173;SDS011;75;48.784;9.364;2022-12-29T06:23:29;7.30;;;6.50;;
173;SDS011;75;48.784;9.364;2022-12-29T06:25:56;6.30;;;4.17;;
173;SDS011;75;48.784;9.364;2022-12-29T06:28:24;6.50;;;3.30;;
173;SDS011;75;48.784;9.364;2022-12-29T06:30:51;5.83;;;3.70;;
173;SDS011;75;48.784;9.364;2022-12-29T06:33:18;5.60;;;3.93;;
173;SDS011;75;48.784;9.364;2022-12-29T06:35:47;4.80;;;2.90;;
173;SDS011;75;48.784;9.364;2022-12-29T06:38:14;4.93;;;2.90;;
173;SDS011;75;48.784;9.364;2022-12-29T06:40:42;5.43;;;3.20;;
173;SDS011;75;48.784;9.364;2022-12-29T06:43:11;5.20;;;3.70;;
173;SDS011;75;48.784;9.364;2022-12-29T06:45:39;5.53;;;3.00;;
173;SDS011;75;48.784;9.364;2022-12-29T06:48:06;7.40;;;3.40;;
173;SDS011;75;48.784;9.364;2022-12-29T06:50:34;6.27;;;3.20;;
173;SDS011;75;48.784;9.364;2022-12-29T06:53:01;4.07;;;2.80;;
173;SDS011;75;48.784;9.364;2022-12-29T06:55:29;4.87;;;3.30;;
173;SDS011;75;48.784;9.364;2022-12-29T06:57:56;4.97;;;3.10;;
173;SDS011;75;48.784;9.364;2022-12-29T07:00:24;5.60;;;3.07;;
173;SDS011;75;48.784;9.364;2022-12-29T07:02:51;5.30;;;2.90;;
173;SDS011;75;48.784;9.364;2022-12-29T07:05:19;8.33;;;3.73;;
173;SDS011;75;48.784;9.364;2022-12-29T07:07:46;3.80;;;2.80;;
173;SDS011;75;48.784;9.364;2022-12-29T07:10:13;3.67;;;2.90;;
173;SDS011;75;48.784;9.364;2022-12-29T07:12:41;5.10;;;3.40;;
173;SDS011;75;48.784;9.364;2022-12-29T07:15:08;5.07;;;3.20;;
173;SDS011;75;48.784;9.364;2022-12-29T07:17:35;8.07;;;3.43;;
173;SDS011;75;48.784;9.364;2022-12-29T07:20:03;7.70;;;3.30;;
173;SDS011;75;48.784;9.364;2022-12-29T07:22:30;6.00;;;3.90;;
173;SDS011;75;48.784;9.364;2022-12-29T07:24:58;5.97;;;3.20;;
173;SDS011;75;48.784;9.364;2022-12-29T07:27:25;8.40;;;3.47;;
173;SDS011;75;48.784;9.364;2022-12-29T07:29:52;11.93;;;3.20;;
173;SDS011;75;48.784;9.364;2022-12-29T07:32:20;6.50;;;2.90;;
173;SDS011;75;48.784;9.364;2022-12-29T07:34:47;5.17;;;2.90;;
173;SDS011;75;48.784;9.364;2022-12-29T07:37:15;5.20;;;3.00;;
173;SDS011;75;48.784;9.364;2022-12-29T07:39:42;6.20;;;2.97;;
173;SDS011;75;48.784;9.364;2022-12-29T07:42:10;4.20;;;2.87;;
173;SDS011;75;48.784;9.364;2022-12-29T07:44:37;6.07;;;3.10;;
173;SDS011;75;48.784;9.364;2022-12-29T07:47:04;4.47;;;2.60;;
173;SDS011;75;48.784;9.364;2022-12-29T07:49:31;4.03;;;2.53;;
173;SDS011;75;48.784;9.364;2022-12-29T07:51:59;11.20;;;4.73;;
173;SDS011;75;48.784;9.364;2022-12-29T07:54:26;14.20;;;7.50;;
173;SDS011;75;48.784;9.364;2022-12-29T07:56:53;7.33;;;4.30;;
173;SDS011;75;48.784;9.364;2022-12-29T07:59:21;7.63;;;4.93;;
173;SDS011;75;48.784;9.364;2022-12-29T08:01:48;7.50;;;3.60;;
173;SDS011;75;48.784;9.364;2022-12-29T08:04:16;9.50;;;4.77;;
173;SDS011;75;48.784;9.364;2022-12-29T08:06:43;8.33;;;3.83;;
173;SDS011;75;48.784;9.364;2022-12-29T08:09:11;6.10;;;3.30;;
173;SDS011;75;48.784;9.364;2022-12-29T08:11:39;4.70;;;2.97;;
173;SDS011;75;48.784;9.364;2022-12-29T08:14:06;4.70;;;3.07;;
173;SDS011;75;48.784;9.364;2022-12-29T08:16:34;5.33;;;3.20;;
173;SDS011;75;48.784;9.364;2022-12-29T08:19:01;5.90;;;3.00;;
173;SDS011;75;48.784;9.364;2022-12-29T08:21:30;4.40;;;2.90;;
173;SDS011;75;48.784;9.364;2022-12-29T08:23:57;5.50;;;3.00;;
173;SDS011;75;48.784;9.364;2022-12-29T08:26:25;5.33;;;3.00;;
173;SDS011;75;48.784;9.364;2022-12-29T08:28:53;6.23;;;2.80;;
173;SDS011;75;48.784;9.364;2022-12-29T08:31:22;7.30;;;3.20;;
173;SDS011;75;48.784;9.364;2022-12-29T08:33:49;6.20;;;3.00;;
173;SDS011;75;48.784;9.364;2022-12-29T08:36:16;5.90;;;2.73;;
173;SDS011;75;48.784;9.364;2022-12-29T08:38:44;6.77;;;3.17;;
173;SDS011;75;48.784;9.364;2022-12-29T08:41:11;4.30;;;2.50;;
173;SDS011;75;48.784;9.364;2022-12-29T08:43:39;5.40;;;2.80;;
173;SDS011;75;48.784;9.364;2022-12-29T08:46:06;5.80;;;3.43;;
173;SDS011;75;48.784;9.364;2022-12-29T08:48:33;9.47;;;3.10;;
173;SDS011;75;48.784;9.364;2022-12-29T08:51:01;4.13;;;2.70;;
173;SDS011;75;48.784;9.364;2022-12-29T08:53:28;4.80;;;2.60;;
173;SDS011;75;48.784;9.364;2022-12-29T08:55:56;5.97;;;2.87;;
173;SDS011;75;48.784;9.364;2022-12-29T08:58:24;6.33;;;3.17;;
173;SDS011;75;48.784;9.364;2022-12-29T09:00:53;4.50;;;2.83;;
173;SDS011;75;48.784;9.364;2022-12-29T09:03:21;6.50;;;2.90;;
173;SDS011;75;48.784;9.364;2022-12-29T09:05:52;8.63;;;3.50;;
173;SDS011;75;48.784;9.364;2022-12-29T09:08:20;6.03;;;3.03;;
173;SDS011;75;48.784;9.364;2022-12-29T09:10:47;5.90;;;3.40;;
173;SDS011;75;48.784;9.364;2022-12-29T09:13:15;5.33;;;3.30;;
173;SDS011;75;48.784;9.364;2022-12-29T09:15:43;5.03;;;3.07;;
173;SDS011;75;48.784;9.364;2022-12-29T09:18:10;5.93;;;3.80;;
173;SDS011;75;48.784;9.364;2022-12-29T09:20:38;6.20;;;2.87;;
173;SDS011;75;48.784;9.364;2022-12-29T09:23:05;5.60;;;3.13;;
173;SDS011;75;48.784;9.364;2022-12-29T09:25:33;4.43;;;2.90;;
173;SDS011;75;48.784;9.364;2022-12-29T09:28:00;4.67;;;2.93;;
173;SDS011;75;48.784;9.364;2022-12-29T09:30:32;6.90;;;3.10;;
173;SDS011;75;48.784;9.364;2022-12-29T09:32:59;4.67;;;2.97;;
173;SDS011;75;48.784;9.364;2022-12-29T09:35:26;6.20;;;3.50;;
173;SDS011;75;48.784;9.364;2022-12-29T09:37:54;5.97;;;3.20;;
173;SDS011;75;48.784;9.364;2022-12-29T09:40:23;8.50;;;3.20;;
173;SDS011;75;48.784;9.364;2022-12-29T09:45:42;6.20;;;2.90;;
173;SDS011;75;48.784;9.364;2022-12-29T09:48:13;5.07;;;2.83;;
173;SDS011;75;48.784;9.364;2022-12-29T09:50:41;5.57;;;3.30;;
173;SDS011;75;48.784;9.364;2022-12-29T09:55:39;7.47;;;2.83;;
173;SDS011;75;48.784;9.364;2022-12-29T09:58:12;6.80;;;2.93;;
173;SDS011;75;48.784;9.364;2022-12-29T10:00:51;5.50;;;3.20;;
173;SDS011;75;48.784;9.364;2022-12-29T10:03:19;6.43;;;2.90;;
173;SDS011;75;48.784;9.364;2022-12-29T10:05:56;5.67;;;2.87;;
173;SDS011;75;48.784;9.364;2022-12-29T10:16:15;4.40;;;2.90;;
173;SDS011;75;48.784;9.364;2022-12-29T10:21:37;7.80;;;4.10;;
173;SDS011;75;48.784;9.364;2022-12-29T10:24:07;10.77;;;6.40;;
173;SDS011;75;48.784;9.364;2022-12-29T10:26:39;15.10;;;8.57;;
173;SDS011;75;48.784;9.364;2022-12-29T10:29:17;14.97;;;7.33;;
173;SDS011;75;48.784;9.364;2022-12-29T10:31:47;16.97;;;9.53;;
173;SDS011;75;48.784;9.364;2022-12-29T10:34:24;26.10;;;11.00;;
173;SDS011;75;48.784;9.364;2022-12-29T10:36:54;40.07;;;19.23;;
173;SDS011;75;48.784;9.364;2022-12-29T10:39:25;48.83;;;20.30;;
173;SDS011;75;48.784;9.364;2022-12-29T10:41:59;13.90;;;6.93;;
173;SDS011;75;48.784;9.364;2022-12-29T10:44:30;6.70;;;4.00;;
173;SDS011;75;48.784;9.364;2022-12-29T10:47:00;5.40;;;4.10;;
173;SDS011;75;48.784;9.364;2022-12-29T10:49:31;5.30;;;3.63;;
173;SDS011;75;48.784;9.364;2022-12-29T10:52:00;6.87;;;3.23;;
173;SDS011;75;48.784;9.364;2022-12-29T10:57:10;7.80;;;3.90;;
173;SDS011;75;48.784;9.364;2022-12-29T10:59:38;5.07;;;2.90;;
173;SDS011;75;48.784;9.364;2022-12-29T11:07:13;6.43;;;3.10;;
173;SDS011;75;48.784;9.364;2022-12-29T11:09:42;5.60;;;3.00;;
173;SDS011;75;48.784;9.364;2022-12-29T11:12:27;6.53;;;3.50;;
173;SDS011;75;48.784;9.364;2022-12-29T11:17:28;7.07;;;3.10;;
173;SDS011;75;48.784;9.364;2022-12-29T11:19:55;5.57;;;2.83;;
173;SDS011;75;48.784;9.364;2022-12-29T11:22:27;4.07;;;3.00;;
173;SDS011;75;48.784;9.364;2022-12-29T11:24:55;4.40;;;3.00;;
173;SDS011;75;48.784;9.364;2022-12-29T11:27:31;5.70;;;3.20;;
173;SDS011;75;48.784;9.364;2022-12-29T11:29:59;4.80;;;3.60;;
173;SDS011;75;48.784;9.364;2022-12-29T11:32:27;7.37;;;3.23;;
173;SDS011;75;48.784;9.364;2022-12-29T11:34:56;5.57;;;3.00;;
173;SDS011;75;48.784;9.364;2022-12-29T11:37:37;5.00;;;2.93;;
173;SDS011;75;48.784;9.364;2022-12-29T11:47:51;5.90;;;3.10;;
173;SDS011;75;48.784;9.364;2022-12-29T11:50:23;6.90;;;2.80;;
173;SDS011;75;48.784;9.364;2022-12-29T11:52:58;6.60;;;3.03;;
173;SDS011;75;48.784;9.364;2022-12-29T11:55:26;5.37;;;3.43;;
173;SDS011;75;48.784;9.364;2022-12-29T11:57:54;5.50;;;3.57;;
173;SDS011;75;48.784;9.364;2022-12-29T12:00:23;5.27;;;3.50;;
173;SDS011;75;48.784;9.364;2022-12-29T12:05:54;7.90;;;2.60;;
173;SDS011;75;48.784;9.364;2022-12-29T12:11:16;5.37;;;3.50;;
173;SDS011;75;48.784;9.364;2022-12-29T12:16:33;8.10;;;3.70;;
173;SDS011;75;48.784;9.364;2022-12-29T12:21:42;5.60;;;2.80;;
173;SDS011;75;48.784;9.364;2022-12-29T12:26:42;6.93;;;3.90;;
173;SDS011;75;48.784;9.364;2022-12-29T12:29:19;5.43;;;3.10;;
173;SDS011;75;48.784;9.364;2022-12-29T12:31:49;8.23;;;4.40;;
173;SDS011;75;48.784;9.364;2022-12-29T12:34:22;7.90;;;3.00;;
173;SDS011;75;48.784;9.364;2022-12-29T12:37:07;6.00;;;3.40;;
173;SDS011;75;48.784;9.364;2022-12-29T12:44:53;4.07;;;2.87;;
173;SDS011;75;48.784;9.364;2022-12-29T12:47:34;4.70;;;3.10;;
173;SDS011;75;48.784;9.364;2022-12-29T12:53:00;6.23;;;3.50;;
173;SDS011;75;48.784;9.364;2022-12-29T12:55:33;5.07;;;3.10;;
173;SDS011;75;48.784;9.364;2022-12-29T13:01:07;5.00;;;3.10;;
173;SDS011;75;48.784;9.364;2022-12-29T13:03:44;6.97;;;3.30;;
173;SDS011;75;48.784;9.364;2022-12-29T13:08:46;7.43;;;3.30;;
173;SDS011;75;48.784;9.364;2022-12-29T13:11:36;5.47;;;3.53;;
173;SDS011;75;48.784;9.364;2022-12-29T13:16:51;5.03;;;3.10;;
173;SDS011;75;48.784;9.364;2022-12-29T13:22:14;4.60;;;3.20;;
173;SDS011;75;48.784;9.364;2022-12-29T13:27:38;5.47;;;3.23;;
173;SDS011;75;48.784;9.364;2022-12-29T13:30:15;6.30;;;3.00;;
173;SDS011;75;48.784;9.364;2022-12-29T13:37:52;5.70;;;3.10;;
173;SDS011;75;48.784;9.364;2022-12-29T13:40:24;5.10;;;3.13;;
173;SDS011;75;48.784;9.364;2022-12-29T13:42:52;4.23;;;2.97;;
173;SDS011;75;48.784;9.364;2022-12-29T13:45:24;5.53;;;2.90;;
173;SDS011;75;48.784;9.364;2022-12-29T13:47:54;6.20;;;2.80;;
173;SDS011;75;48.784;9.364;2022-12-29T13:50:24;6.00;;;4.00;;
173;SDS011;75;48.784;9.364;2022-12-29T13:53:00;4.80;;;3.40;;
173;SDS011;75;48.784;9.364;2022-12-29T13:55:32;5.50;;;3.30;;
173;SDS011;75;48.784;9.364;2022-12-29T13:58:04;7.77;;;3.60;;
173;SDS011;75;48.784;9.364;2022-12-29T14:00:42;5.73;;;3.30;;
173;SDS011;75;48.784;9.364;2022-12-29T14:04:13;4.87;;;3.07;;
173;SDS011;75;48.784;9.364;2022-12-29T14:09:03;5.20;;;3.13;;
173;SDS011;75;48.784;9.364;2022-12-29T14:11:32;4.50;;;3.37;;
173;SDS011;75;48.784;9.364;2022-12-29T14:14:09;5.40;;;3.20;;
173;SDS011;75;48.784;9.364;2022-12-29T14:16:38;9.17;;;3.50;;
173;SDS011;75;48.784;9.364;2022-12-29T14:19:10;7.30;;;3.53;;
173;SDS011;75;48.784;9.364;2022-12-29T14:21:38;6.57;;;3.53;;
173;SDS011;75;48.784;9.364;2022-12-29T14:26:52;6.70;;;3.20;;
173;SDS011;75;48.784;9.364;2022-12-29T14:31:56;6.00;;;3.50;;
173;SDS011;75;48.784;9.364;2022-12-29T14:34:26;5.87;;;4.00;;
173;SDS011;75;48.784;9.364;2022-12-29T14:36:54;9.37;;;3.60;;
173;SDS011;75;48.784;9.364;2022-12-29T14:39:30;5.90;;;3.57;;
173;SDS011;75;48.784;9.364;2022-12-29T14:44:56;12.73;;;4.50;;
173;SDS011;75;48.784;9.364;2022-12-29T14:49:52;8.63;;;4.03;;
173;SDS011;75;48.784;9.364;2022-12-29T14:52:24;6.57;;;4.20;;
173;SDS011;75;48.784;9.364;2022-12-29T14:54:56;9.33;;;3.93;;
173;SDS011;75;48.784;9.364;2022-12-29T14:57:30;9.00;;;4.47;;
173;SDS011;75;48.784;9.364;2022-12-29T15:02:40;6.70;;;4.30;;
173;SDS011;75;48.784;9.364;2022-12-29T15:06:10;8.03;;;4.87;;
173;SDS011;75;48.784;9.364;2022-12-29T15:08:04;6.43;;;4.30;;
173;SDS011;75;48.784;9.364;2022-12-29T15:11:18;7.17;;;4.03;;
173;SDS011;75;48.784;9.364;2022-12-29T15:13:42;7.03;;;4.17;;
173;SDS011;75;48.784;9.364;2022-12-29T15:18:52;12.73;;;6.53;;
173;SDS011;75;48.784;9.364;2022-12-29T15:21:24;9.73;;;6.47;;
173;SDS011;75;48.784;9.364;2022-12-29T15:23:52;12.40;;;7.23;;
173;SDS011;75;48.784;9.364;2022-12-29T15:26:20;10.20;;;6.53;;
173;SDS011;75;48.784;9.364;2022-12-29T15:28:51;12.87;;;5.90;;
173;SDS011;75;48.784;9.364;2022-12-29T15:31:21;10.60;;;6.13;;
173;SDS011;75;48.784;9.364;2022-12-29T15:33:50;11.43;;;7.50;;
173;SDS011;75;48.784;9.364;2022-12-29T15:36:20;10.20;;;6.50;;
173;SDS011;75;48.784;9.364;2022-12-29T15:38:48;10.00;;;6.23;;
173;SDS011;75;48.784;9.364;2022-12-29T15:41:33;11.57;;;6.50;;
173;SDS011;75;48.784;9.364;2022-12-29T15:44:28;6.10;;;4.40;;
173;SDS011;75;48.784;9.364;2022-12-29T15:46:56;10.20;;;5.63;;
173;SDS011;75;48.784;9.364;2022-12-29T15:49:24;11.47;;;6.07;;
173;SDS011;75;48.784;9.364;2022-12-29T15:51:51;14.73;;;6.93;;
173;SDS011;75;48.784;9.364;2022-12-29T15:54:19;8.30;;;5.23;;
173;SDS011;75;48.784;9.364;2022-12-29T15:56:47;6.03;;;4.37;;
173;SDS011;75;48.784;9.364;2022-12-29T15:59:26;7.33;;;4.50;;
173;SDS011;75;48.784;9.364;2022-12-29T16:01:57;6.60;;;4.60;;
173;SDS011;75;48.784;9.364;2022-12-29T16:04:29;13.93;;;4.17;;
173;SDS011;75;48.784;9.364;2022-12-29T16:07:01;12.57;;;4.47;;
173;SDS011;75;48.784;9.364;2022-12-29T16:09:35;13.00;;;4.97;;
173;SDS011;75;48.784;9.364;2022-12-29T16:12:07;5.40;;;2.70;;
173;SDS011;75;48.784;9.364;2022-12-29T16:14:45;3.83;;;2.30;;
173;SDS011;75;48.784;9.364;2022-12-29T16:17:14;6.10;;;3.10;;
173;SDS011;75;48.784;9.364;2022-12-29T16:19:49;3.40;;;2.20;;
173;SDS011;75;48.784;9.364;2022-12-29T16:22:18;8.20;;;3.80;;
173;SDS011;75;48.784;9.364;2022-12-29T16:24:48;4.70;;;3.03;;
173;SDS011;75;48.784;9.364;2022-12-29T16:27:22;5.43;;;2.80;;
173;SDS011;75;48.784;9.364;2022-12-29T16:29:53;4.73;;;3.10;;
173;SDS011;75;48.784;9.364;2022-12-29T16:32:25;5.37;;;3.23;;
173;SDS011;75;48.784;9.364;2022-12-29T16:37:39;4.53;;;3.30;;
173;SDS011;75;48.784;9.364;2022-12-29T16:42:59;4.60;;;3.03;;
173;SDS011;75;48.784;9.364;2022-12-29T16:50:41;5.37;;;3.10;;
173;SDS011;75;48.784;9.364;2022-12-29T16:56:08;5.50;;;3.70;;
173;SDS011;75;48.784;9.364;2022-12-29T16:58:39;6.37;;;3.90;;
173;SDS011;75;48.784;9.364;2022-12-29T17:01:07;5.03;;;3.20;;
173;SDS011;75;48.784;9.364;2022-12-29T17:03:42;4.67;;;3.10;;
173;SDS011;75;48.784;9.364;2022-12-29T17:06:17;5.93;;;2.43;;
173;SDS011;75;48.784;9.364;2022-12-29T17:08:45;6.73;;;2.90;;
173;SDS011;75;48.784;9.364;2022-12-29T17:11:20;6.23;;;2.63;;
173;SDS011;75;48.784;9.364;2022-12-29T17:14:51;3.60;;;2.40;;
173;SDS011;75;48.784;9.364;2022-12-29T17:16:57;6.67;;;3.90;;
173;SDS011;75;48.784;9.364;2022-12-29T17:19:28;7.80;;;4.47;;
173;SDS011;75;48.784;9.364;2022-12-29T17:21:56;10.00;;;5.60;;
173;SDS011;75;48.784;9.364;2022-12-29T17:24:23;5.50;;;3.70;;
173;SDS011;75;48.784;9.364;2022-12-29T17:26:52;7.43;;;5.10;;
173;SDS011;75;48.784;9.364;2022-12-29T17:29:24;8.90;;;5.20;;
173;SDS011;75;48.784;9.364;2022-12-29T17:31:53;7.00;;;5.30;;
173;SDS011;75;48.784;9.364;2022-12-29T17:34:21;13.00;;;5.67;;
173;SDS011;75;48.784;9.364;2022-12-29T17:36:48;11.03;;;5.80;;
173;SDS011;75;48.784;9.364;2022-12-29T17:39:15;7.57;;;5.17;;
173;SDS011;75;48.784;9.364;2022-12-29T17:41:43;5.60;;;3.80;;
173;SDS011;75;48.784;9.364;2022-12-29T17:44:17;7.73;;;3.37;;
173;SDS011;75;48.784;9.364;2022-12-29T17:46:45;4.80;;;3.07;;
173;SDS011;75;48.784;9.364;2022-12-29T17:49:14;4.90;;;3.00;;
173;SDS011;75;48.784;9.364;2022-12-29T17:51:42;6.20;;;3.80;;
173;SDS011;75;48.784;9.364;2022-12-29T17:54:20;9.07;;;4.60;;
173;SDS011;75;48.784;9.364;2022-12-29T17:56:48;8.57;;;5.53;;
173;SDS011;75;48.784;9.364;2022-12-29T17:59:16;11.60;;;7.20;;
173;SDS011;75;48.784;9.364;2022-12-29T18:01:44;18.63;;;13.03;;
173;SDS011;75;48.784;9.364;2022-12-29T18:04:12;18.30;;;13.63;;
173;SDS011;75;48.784;9.364;2022-12-29T18:06:40;18.10;;;12.43;;
173;SDS011;75;48.784;9.364;2022-12-29T18:09:07;19.90;;;13.23;;
173;SDS011;75;48.784;9.364;2022-12-29T18:11:39;14.87;;;10.13;;
173;SDS011;75;48.784;9.364;2022-12-29T18:14:13;11.33;;;7.17;;
173;SDS011;75;48.784;9.364;2022-12-29T18:16:41;6.80;;;4.90;;
173;SDS011;75;48.784;9.364;2022-12-29T18:19:09;6.50;;;4.30;;
173;SDS011;75;48.784;9.364;2022-12-29T18:21:36;9.47;;;6.47;;
173;SDS011;75;48.784;9.364;2022-12-29T18:24:08;10.13;;;5.23;;
173;SDS011;75;48.784;9.364;2022-12-29T18:26:39;9.10;;;5.80;;
173;SDS011;75;48.784;9.364;2022-12-29T18:29:06;6.93;;;4.80;;
173;SDS011;75;48.784;9.364;2022-12-29T18:31:33;10.33;;;6.60;;
173;SDS011;75;48.784;9.364;2022-12-29T18:34:03;17.20;;;10.27;;
173;SDS011;75;48.784;9.364;2022-12-29T18:36:33;15.13;;;7.97;;